createdAt,value
2023-03-20T00:02:00.912Z,44.28
2023-03-20T00:04:27.717Z,45.65
2023-03-20T00:06:54.195Z,47.42
2023-03-20T00:09:20.713Z,46.50
2023-03-20T00:11:49.862Z,44.92
2023-03-20T00:14:19.545Z,45.35
2023-03-20T00:16:48.340Z,44.80
2023-03-20T00:19:18.650Z,44.95
2023-03-20T00:21:47.674Z,43.03
2023-03-20T00:24:15.947Z,45.42
2023-03-20T00:26:44.079Z,46.10
2023-03-20T00:29:20.052Z,49.75
2023-03-20T00:31:46.643Z,43.58
2023-03-20T00:34:15.332Z,44.97
2023-03-20T00:36:41.932Z,49.47
2023-03-20T00:39:08.971Z,47.53
2023-03-20T00:41:38.563Z,42.40
2023-03-20T00:44:19.014Z,39.35
2023-03-20T00:46:48.805Z,42.58
2023-03-20T00:49:15.406Z,37.88
2023-03-20T00:51:42.508Z,40.38
2023-03-20T00:54:17.391Z,42.13
2023-03-20T00:56:57.168Z,38.20
2023-03-20T00:59:27.069Z,44.58
2023-03-20T01:01:53.628Z,41.03
2023-03-20T01:04:21.410Z,38.42
2023-03-20T01:06:48.227Z,41.45
2023-03-20T01:09:14.947Z,40.97
2023-03-20T01:11:42.900Z,35.80
2023-03-20T01:14:14.780Z,39.35
2023-03-20T01:16:41.445Z,35.40
2023-03-20T01:19:12.282Z,38.38
2023-03-20T01:21:38.824Z,34.63
2023-03-20T01:24:05.605Z,34.72
2023-03-20T01:26:36.761Z,33.63
2023-03-20T01:29:04.710Z,33.65
2023-03-20T01:31:31.752Z,31.80
2023-03-20T01:33:58.313Z,32.10
2023-03-20T01:36:24.951Z,34.97
2023-03-20T01:38:56.208Z,36.88
2023-03-20T01:41:24.961Z,36.97
2023-03-20T01:43:52.036Z,34.22
2023-03-20T01:46:28.493Z,34.30
2023-03-20T01:49:18.677Z,35.72
2023-03-20T01:51:45.974Z,29.17
2023-03-20T01:54:21.376Z,37.30
2023-03-20T01:56:52.782Z,29.30
2023-03-20T01:59:29.343Z,33.60
2023-03-20T02:01:56.707Z,30.88
2023-03-20T02:09:33.378Z,30.88
2023-03-20T02:12:00.647Z,33.85
2023-03-20T02:14:28.262Z,32.63
2023-03-20T02:16:54.889Z,33.92
2023-03-20T02:19:47.603Z,34.17
2023-03-20T02:22:50.183Z,30.95
2023-03-20T02:25:31.445Z,31.05
2023-03-20T02:28:22.639Z,28.85
2023-03-20T02:31:42.687Z,29.65
2023-03-20T02:34:39.986Z,29.50
2023-03-20T02:37:28.422Z,30.05
2023-03-20T02:40:14.876Z,29.73
2023-03-20T02:43:15.738Z,33.80
2023-03-20T02:46:20.730Z,30.95
2023-03-20T02:48:59.979Z,36.08
2023-03-20T02:51:41.909Z,34.65
2023-03-20T02:54:38.665Z,34.00
2023-03-20T02:57:18.386Z,36.38
2023-03-20T02:59:59.715Z,29.83
2023-03-20T03:02:37.703Z,28.58
2023-03-20T03:05:12.506Z,35.58
2023-03-20T03:07:42.229Z,37.03
2023-03-20T03:10:15.716Z,32.58
2023-03-20T03:12:46.808Z,33.22
2023-03-20T03:15:23.588Z,33.80
2023-03-20T03:17:50.749Z,31.77
2023-03-20T03:20:23.454Z,32.80
2023-03-20T03:22:50.587Z,32.63
2023-03-20T03:25:17.589Z,37.60
2023-03-20T03:27:47.741Z,31.63
2023-03-20T03:30:28.133Z,36.33
2023-03-20T03:33:28.313Z,37.67
2023-03-20T03:36:08.789Z,39.80
2023-03-20T03:38:50.721Z,34.65
2023-03-20T03:41:33.046Z,38.70
2023-03-20T03:44:17.941Z,37.90
2023-03-20T03:46:59.171Z,36.25
2023-03-20T03:49:33.286Z,38.22
2023-03-20T03:52:05.497Z,41.47
2023-03-20T03:54:41.358Z,39.63
2023-03-20T03:57:11.075Z,40.90
2023-03-20T03:59:41.072Z,37.42
2023-03-20T04:02:09.358Z,38.78
2023-03-20T04:04:38.794Z,41.33
2023-03-20T04:07:05.689Z,36.70
2023-03-20T04:09:32.312Z,39.45
2023-03-20T04:11:58.884Z,37.47
2023-03-20T04:14:25.432Z,40.53
2023-03-20T04:16:51.905Z,44.70
2023-03-20T04:19:18.430Z,39.67
2023-03-20T04:21:45.887Z,42.88
2023-03-20T04:24:12.588Z,35.30
2023-03-20T04:26:40.150Z,37.05
2023-03-20T04:29:06.734Z,38.92
2023-03-20T04:31:33.625Z,35.88
2023-03-20T04:34:00.279Z,33.90
2023-03-20T04:36:26.835Z,41.15
2023-03-20T04:38:55.218Z,36.70
2023-03-20T04:41:23.616Z,36.33
2023-03-20T04:43:50.297Z,34.78
2023-03-20T04:46:16.857Z,35.63
2023-03-20T04:48:43.445Z,36.80
2023-03-20T04:51:09.967Z,38.38
2023-03-20T04:53:36.884Z,39.33
2023-03-20T04:56:03.370Z,33.00
2023-03-20T04:58:29.830Z,33.80
2023-03-20T05:00:56.441Z,35.05
2023-03-20T05:03:24.156Z,38.63
2023-03-20T05:05:50.912Z,34.65
2023-03-20T05:08:17.458Z,33.90
2023-03-20T05:10:43.966Z,35.35
2023-03-20T05:13:10.659Z,33.05
2023-03-20T05:15:37.886Z,36.20
2023-03-20T05:18:04.599Z,30.48
2023-03-20T05:20:31.326Z,33.38
2023-03-20T05:22:57.811Z,35.33
2023-03-20T05:25:24.336Z,33.83
2023-03-20T05:27:51.153Z,32.38
2023-03-20T05:30:17.890Z,30.33
2023-03-20T05:32:44.389Z,32.38
2023-03-20T05:35:12.341Z,34.50
2023-03-20T05:37:39.584Z,30.90
2023-03-20T05:40:07.101Z,29.60
2023-03-20T05:42:33.673Z,31.33
2023-03-20T05:45:00.666Z,30.42
2023-03-20T05:47:27.219Z,33.58
2023-03-20T05:49:53.754Z,31.00
2023-03-20T05:52:20.414Z,28.38
2023-03-20T05:54:47.516Z,27.85
2023-03-20T05:57:14.059Z,26.55
2023-03-20T05:59:40.622Z,26.38
2023-03-20T06:02:07.350Z,32.60
2023-03-20T06:04:35.091Z,34.17
2023-03-20T06:07:01.581Z,34.45
2023-03-20T06:09:28.061Z,40.13
2023-03-20T06:11:54.555Z,31.50
2023-03-20T06:14:21.103Z,28.98
2023-03-20T06:16:47.613Z,28.20
2023-03-20T06:19:14.198Z,27.83
2023-03-20T06:21:40.679Z,27.80
2023-03-20T06:24:07.426Z,28.67
2023-03-20T06:26:33.889Z,26.08
2023-03-20T06:29:00.570Z,26.88
2023-03-20T06:31:27.375Z,30.15
2023-03-20T06:33:53.909Z,28.38
2023-03-20T06:36:20.705Z,23.65
2023-03-20T06:38:47.224Z,28.98
2023-03-20T06:41:24.542Z,23.23
2023-03-20T06:44:00.107Z,27.52
2023-03-20T06:46:26.745Z,30.23
2023-03-20T06:48:53.340Z,25.10
2023-03-20T06:51:19.879Z,31.23
2023-03-20T06:53:46.345Z,30.65
2023-03-20T06:56:12.905Z,28.10
2023-03-20T06:58:39.481Z,29.42
2023-03-20T07:01:10.749Z,26.90
2023-03-20T07:03:37.347Z,25.88
2023-03-20T07:06:05.125Z,29.02
2023-03-20T07:08:32.975Z,32.70
2023-03-20T07:11:01.548Z,27.45
2023-03-20T07:13:28.466Z,28.70
2023-03-20T07:16:04.063Z,27.67
2023-03-20T07:18:31.652Z,32.50
2023-03-20T07:21:02.446Z,27.55
2023-03-20T07:23:30.811Z,29.95
2023-03-20T07:25:58.213Z,33.65
2023-03-20T07:28:24.790Z,27.80
2023-03-20T07:30:51.747Z,27.67
2023-03-20T07:33:18.381Z,31.40
2023-03-20T07:35:44.983Z,28.10
2023-03-20T07:38:11.696Z,26.67
2023-03-20T07:40:38.292Z,28.42
2023-03-20T07:43:04.784Z,28.13
2023-03-20T07:45:32.845Z,26.33
2023-03-20T07:47:59.487Z,28.83
2023-03-20T07:50:26.006Z,25.52
2023-03-20T07:52:52.540Z,24.50
2023-03-20T07:55:19.060Z,24.70
2023-03-20T07:57:45.647Z,26.35
2023-03-20T08:00:12.804Z,25.25
2023-03-20T08:02:39.326Z,25.17
2023-03-20T08:05:06.326Z,29.88
2023-03-20T08:07:33.258Z,25.85
2023-03-20T08:10:00.227Z,26.95
2023-03-20T08:12:26.700Z,26.50
2023-03-20T08:14:53.201Z,23.20
2023-03-20T08:17:21.730Z,24.15
2023-03-20T08:19:48.551Z,25.25
2023-03-20T08:22:15.460Z,24.50
2023-03-20T08:24:42.021Z,27.42
2023-03-20T08:27:08.577Z,23.85
2023-03-20T08:29:35.895Z,26.02
2023-03-20T08:32:02.406Z,32.60
2023-03-20T08:34:28.912Z,43.47
2023-03-20T08:36:55.710Z,33.65
2023-03-20T08:39:22.240Z,25.63
2023-03-20T08:41:49.703Z,28.35
2023-03-20T08:44:16.545Z,34.10
2023-03-20T08:46:44.852Z,29.95
2023-03-20T08:49:11.347Z,27.58
2023-03-20T08:51:37.850Z,31.95
2023-03-20T08:54:04.519Z,28.60
2023-03-20T08:56:31.178Z,30.25
2023-03-20T08:58:57.668Z,26.13
2023-03-20T09:01:28.411Z,25.35
2023-03-20T09:03:59.105Z,28.02
2023-03-20T09:06:26.059Z,28.60
2023-03-20T09:08:54.895Z,31.05
2023-03-20T09:11:21.450Z,34.42
2023-03-20T09:13:47.930Z,26.50
2023-03-20T09:16:15.200Z,30.10
2023-03-20T09:18:42.156Z,29.23
2023-03-20T09:21:08.702Z,27.77
2023-03-20T09:23:35.226Z,29.50
2023-03-20T09:26:02.998Z,26.50
2023-03-20T09:28:29.490Z,24.75
2023-03-20T09:30:57.588Z,26.90
2023-03-20T09:33:24.266Z,27.13
2023-03-20T09:35:51.042Z,22.90
2023-03-20T09:38:17.780Z,24.85
2023-03-20T09:40:51.418Z,23.60
2023-03-20T09:43:28.880Z,22.98
2023-03-20T09:46:02.639Z,24.42
2023-03-20T09:48:38.552Z,25.33
2023-03-20T09:51:29.845Z,27.42
2023-03-20T09:54:07.482Z,23.65
2023-03-20T09:56:34.266Z,21.35
2023-03-20T09:59:04.321Z,21.48
2023-03-20T10:01:38.390Z,19.50
2023-03-20T10:04:10.835Z,19.98
2023-03-20T10:06:38.017Z,20.90
2023-03-20T10:09:16.562Z,18.67
2023-03-20T10:12:08.460Z,18.92
2023-03-20T10:14:50.282Z,17.33
2023-03-20T10:17:25.724Z,17.83
2023-03-20T10:19:58.111Z,18.35
2023-03-20T10:22:32.545Z,16.58
2023-03-20T10:25:16.911Z,15.85
2023-03-20T10:27:49.487Z,15.98
2023-03-20T10:30:30.756Z,19.05
2023-03-20T10:33:18.257Z,15.02
2023-03-20T10:36:01.981Z,14.68
2023-03-20T10:38:42.547Z,17.10
2023-03-20T10:41:16.412Z,16.55
2023-03-20T10:43:46.268Z,17.10
2023-03-20T10:46:33.600Z,16.27
2023-03-20T10:49:05.267Z,16.83
2023-03-20T10:51:41.997Z,14.63
2023-03-20T10:54:26.762Z,17.30
2023-03-20T10:56:57.238Z,12.07
2023-03-20T10:59:27.466Z,12.27
2023-03-20T11:01:54.656Z,14.45
2023-03-20T11:04:21.347Z,10.50
2023-03-20T11:07:07.912Z,14.18
2023-03-20T11:09:34.400Z,13.80
2023-03-20T11:12:03.399Z,14.70
2023-03-20T11:14:39.466Z,14.43
2023-03-20T11:17:06.895Z,12.63
2023-03-20T11:19:38.855Z,13.25
2023-03-20T11:22:26.383Z,11.93
2023-03-20T11:24:56.417Z,12.60
2023-03-20T11:27:31.702Z,14.70
2023-03-20T11:30:00.372Z,12.48
2023-03-20T11:32:39.227Z,12.63
2023-03-20T11:35:31.101Z,12.50
2023-03-20T11:38:19.421Z,12.23
2023-03-20T11:40:48.560Z,10.88
2023-03-20T11:43:19.570Z,12.48
2023-03-20T11:45:56.067Z,13.27
2023-03-20T11:48:36.472Z,13.18
2023-03-20T11:51:07.293Z,15.38
2023-03-20T11:53:49.080Z,13.82
2023-03-20T11:56:28.948Z,15.05
2023-03-20T11:58:56.126Z,12.45
2023-03-20T12:01:22.810Z,12.40
2023-03-20T12:04:02.281Z,15.32
2023-03-20T12:06:43.313Z,13.45
2023-03-20T12:09:23.477Z,13.85
2023-03-20T12:12:01.118Z,14.70
2023-03-20T12:14:35.971Z,13.80
2023-03-20T12:17:34.359Z,16.27
2023-03-20T12:20:27.744Z,12.25
2023-03-20T12:23:06.808Z,13.98
2023-03-20T12:25:55.179Z,16.08
2023-03-20T12:28:28.019Z,17.10
2023-03-20T12:31:23.619Z,17.60
2023-03-20T12:34:06.566Z,15.43
2023-03-20T12:36:37.378Z,17.60
2023-03-20T12:39:06.981Z,20.65
2023-03-20T12:41:48.400Z,18.90
2023-03-20T12:44:34.440Z,18.50
2023-03-20T12:47:28.309Z,16.92
2023-03-20T12:49:54.783Z,18.08
2023-03-20T12:52:56.910Z,17.02
2023-03-20T12:55:26.437Z,19.35
2023-03-20T12:58:09.678Z,19.17
2023-03-20T13:00:45.945Z,18.38
2023-03-20T13:03:38.264Z,17.92
2023-03-20T13:06:12.967Z,16.98
2023-03-20T13:08:48.531Z,17.55
2023-03-20T13:11:40.489Z,14.63
2023-03-20T13:14:33.188Z,20.13
2023-03-20T13:17:11.560Z,14.32
2023-03-20T13:19:50.298Z,16.05
2023-03-20T13:22:36.818Z,13.82
2023-03-20T13:25:27.809Z,14.73
2023-03-20T13:28:06.494Z,11.88
2023-03-20T13:30:44.278Z,12.70
2023-03-20T13:33:29.452Z,14.68
2023-03-20T13:36:12.569Z,16.55
2023-03-20T13:38:48.220Z,15.18
2023-03-20T13:41:16.278Z,15.80
2023-03-20T13:43:50.718Z,15.82
2023-03-20T13:46:22.562Z,14.93
2023-03-20T13:48:51.556Z,15.70
2023-03-20T13:51:44.581Z,14.15
2023-03-20T13:54:59.505Z,11.75
2023-03-20T13:57:46.389Z,12.73
2023-03-20T14:00:28.607Z,10.05
2023-03-20T14:03:21.481Z,12.20
2023-03-20T14:05:48.219Z,12.02
2023-03-20T14:08:33.818Z,11.85
2023-03-20T14:11:08.149Z,14.60
2023-03-20T14:13:35.979Z,12.32
2023-03-20T14:16:09.482Z,15.00
2023-03-20T14:18:36.594Z,25.20
2023-03-20T14:21:10.439Z,32.08
2023-03-20T14:23:39.675Z,18.98
2023-03-20T14:26:19.350Z,14.90
2023-03-20T14:28:59.444Z,13.80
2023-03-20T14:31:37.807Z,14.55
2023-03-20T14:34:13.352Z,12.77
2023-03-20T14:37:02.212Z,16.75
2023-03-20T14:39:50.756Z,15.27
2023-03-20T14:42:29.050Z,19.13
2023-03-20T14:45:13.988Z,14.45
2023-03-20T14:47:56.003Z,13.98
2023-03-20T14:50:30.618Z,9.52
2023-03-20T14:53:20.137Z,11.25
2023-03-20T14:55:52.167Z,10.35
2023-03-20T14:58:56.512Z,8.55
2023-03-20T15:01:25.186Z,8.48
2023-03-20T15:04:06.887Z,8.23
2023-03-20T15:06:35.448Z,8.52
2023-03-20T15:09:09.068Z,8.68
2023-03-20T15:11:36.081Z,8.95
2023-03-20T15:14:06.784Z,6.80
2023-03-20T15:16:35.601Z,8.60
2023-03-20T15:19:09.161Z,6.40
2023-03-20T15:21:41.338Z,6.63
2023-03-20T15:24:08.523Z,6.32
2023-03-20T15:26:36.129Z,6.47
2023-03-20T15:29:05.874Z,6.50
2023-03-20T15:31:38.252Z,6.85
2023-03-20T15:34:22.128Z,7.45
2023-03-20T15:36:48.846Z,11.15
2023-03-20T15:39:19.125Z,9.77
2023-03-20T15:42:12.200Z,8.80
2023-03-20T15:44:41.052Z,7.20
2023-03-20T15:47:20.712Z,6.63
2023-03-20T15:49:56.633Z,5.70
2023-03-20T15:52:52.915Z,5.50
2023-03-20T15:55:23.096Z,5.63
2023-03-20T15:57:52.766Z,6.88
2023-03-20T16:00:35.116Z,6.13
2023-03-20T16:03:04.495Z,6.00
2023-03-20T16:05:31.791Z,6.03
2023-03-20T16:08:12.522Z,5.80
2023-03-20T16:10:43.066Z,7.80
2023-03-20T16:13:14.565Z,5.30
2023-03-20T16:15:41.286Z,7.82
2023-03-20T16:18:11.719Z,7.68
2023-03-20T16:20:46.084Z,9.13
2023-03-20T16:23:19.997Z,7.65
2023-03-20T16:25:46.709Z,11.75
2023-03-20T16:28:15.663Z,16.58
2023-03-20T16:30:42.212Z,14.10
2023-03-20T16:33:15.841Z,10.82
2023-03-20T16:35:48.374Z,11.30
2023-03-20T16:38:23.193Z,9.45
2023-03-20T16:40:55.043Z,11.43
2023-03-20T16:43:29.468Z,18.48
2023-03-20T16:45:58.474Z,11.70
2023-03-20T16:48:37.857Z,8.90
2023-03-20T16:51:14.268Z,12.52
2023-03-20T16:53:45.038Z,9.85
2023-03-20T16:56:16.269Z,10.38
2023-03-20T16:58:45.870Z,10.05
2023-03-20T17:01:20.188Z,12.65
2023-03-20T17:03:56.394Z,10.32
2023-03-20T17:06:22.999Z,10.35
2023-03-20T17:08:53.471Z,13.82
2023-03-20T17:11:29.540Z,12.15
2023-03-20T17:16:22.963Z,12.15
2023-03-20T17:19:06.050Z,10.15
2023-03-20T17:21:32.670Z,11.57
2023-03-20T17:23:59.435Z,12.52
2023-03-20T17:26:26.040Z,12.43
2023-03-20T17:28:52.814Z,12.13
2023-03-20T17:31:19.480Z,10.45
2023-03-20T17:33:46.599Z,10.90
2023-03-20T17:36:24.382Z,12.48
2023-03-20T17:38:51.083Z,12.07
2023-03-20T17:41:19.779Z,12.07
2023-03-20T17:43:47.263Z,13.82
2023-03-20T17:46:27.536Z,14.77
2023-03-20T17:49:07.811Z,13.77
2023-03-20T17:51:35.439Z,13.82
2023-03-20T17:54:01.977Z,15.32
2023-03-20T17:56:30.278Z,14.93
2023-03-20T17:58:57.742Z,16.65
2023-03-20T18:01:24.883Z,15.40
2023-03-20T18:03:51.439Z,12.95
2023-03-20T18:06:27.203Z,15.25
2023-03-20T18:08:55.459Z,17.42
2023-03-20T18:11:22.581Z,14.90
2023-03-20T18:13:49.183Z,13.32
2023-03-20T18:16:21.816Z,14.02
2023-03-20T18:18:48.916Z,14.38
2023-03-20T18:21:16.857Z,18.15
2023-03-20T18:23:44.394Z,15.63
2023-03-20T18:26:25.209Z,16.95
2023-03-20T18:28:53.803Z,14.85
2023-03-20T18:31:21.651Z,18.27
2023-03-20T18:33:49.958Z,15.85
2023-03-20T18:36:19.506Z,19.05
2023-03-20T18:38:46.497Z,20.95
2023-03-20T18:41:13.301Z,21.13
2023-03-20T18:43:40.287Z,20.35
2023-03-20T18:46:07.247Z,17.63
2023-03-20T18:48:33.887Z,17.10
2023-03-20T18:51:02.008Z,16.17
2023-03-20T18:53:29.847Z,16.77
2023-03-20T18:55:56.472Z,19.25
2023-03-20T18:58:25.846Z,18.25
2023-03-20T19:00:54.310Z,18.40
2023-03-20T19:03:24.825Z,20.58
2023-03-20T19:05:57.628Z,20.73
2023-03-20T19:08:24.394Z,18.92
2023-03-20T19:10:51.253Z,21.83
2023-03-20T19:13:20.084Z,21.13
2023-03-20T19:15:46.922Z,21.20
2023-03-20T19:18:21.539Z,20.35
2023-03-20T19:20:50.273Z,20.08
2023-03-20T19:23:19.811Z,19.20
2023-03-20T19:25:48.655Z,20.23
2023-03-20T19:28:37.699Z,22.60
2023-03-20T19:31:06.510Z,23.20
2023-03-20T19:33:33.409Z,19.23
2023-03-20T19:36:03.183Z,21.70
2023-03-20T19:38:30.712Z,18.65
2023-03-20T19:40:57.979Z,18.83
2023-03-20T19:43:24.929Z,19.42
2023-03-20T19:45:57.900Z,19.13
2023-03-20T19:48:27.936Z,18.55
2023-03-20T19:50:56.588Z,19.73
2023-03-20T19:53:26.680Z,17.25
2023-03-20T19:55:54.439Z,17.33
2023-03-20T19:58:21.667Z,19.30
2023-03-20T20:00:57.612Z,19.35
2023-03-20T20:03:26.435Z,16.30
2023-03-20T20:05:53.694Z,18.17
2023-03-20T20:08:30.915Z,16.58
2023-03-20T20:11:06.450Z,17.20
2023-03-20T20:13:34.450Z,21.50
2023-03-20T20:16:01.063Z,19.67
2023-03-20T20:18:28.919Z,17.90
2023-03-20T20:22:02.420Z,18.35
2023-03-20T20:23:44.203Z,17.48
2023-03-20T20:26:10.826Z,19.73
2023-03-20T20:28:37.442Z,17.58
2023-03-20T20:31:04.128Z,23.98
2023-03-20T20:33:34.152Z,16.33
2023-03-20T20:36:57.518Z,16.45
2023-03-20T20:38:56.079Z,22.17
2023-03-20T20:41:22.783Z,23.35
2023-03-20T20:44:14.618Z,18.67
2023-03-20T20:46:35.794Z,20.45
2023-03-20T20:49:18.150Z,22.63
2023-03-20T20:51:45.182Z,26.52
2023-03-20T20:54:11.783Z,24.15
2023-03-20T20:56:38.287Z,23.38
2023-03-20T20:59:04.817Z,20.67
2023-03-20T21:01:31.398Z,23.42
2023-03-20T21:03:57.970Z,24.33
2023-03-20T21:06:38.635Z,19.27
2023-03-20T21:09:11.254Z,28.05
2023-03-20T21:11:37.970Z,25.40
2023-03-20T21:14:04.578Z,26.13
2023-03-20T21:16:31.218Z,24.95
2023-03-20T21:18:58.675Z,26.27
2023-03-20T21:21:25.399Z,26.90
2023-03-20T21:23:52.130Z,27.50
2023-03-20T21:26:18.775Z,32.95
2023-03-20T21:28:45.796Z,27.23
2023-03-20T21:31:26.590Z,26.13
2023-03-20T21:33:55.162Z,28.30
2023-03-20T21:36:23.462Z,29.83
2023-03-20T21:39:08.726Z,25.35
2023-03-20T21:41:40.565Z,27.60
2023-03-20T21:44:08.545Z,32.88
2023-03-20T21:50:17.509Z,46.55
2023-03-20T22:12:20.297Z,29.00
2023-03-20T22:37:34.405Z,29.48
2023-03-20T22:42:49.393Z,29.60
2023-03-20T22:45:10.150Z,30.15
2023-03-20T22:47:37.273Z,31.95
2023-03-20T22:50:04.342Z,36.53
2023-03-20T22:52:47.559Z,35.75
2023-03-20T22:55:16.695Z,34.90
2023-03-20T22:57:53.056Z,40.55
2023-03-20T23:00:29.821Z,39.60
2023-03-20T23:03:06.703Z,30.13
2023-03-20T23:05:39.349Z,41.10
2023-03-20T23:08:07.958Z,36.28
2023-03-20T23:10:37.863Z,43.05
2023-03-20T23:13:04.640Z,40.67
2023-03-20T23:15:31.438Z,39.78
2023-03-20T23:17:58.022Z,37.20
2023-03-20T23:20:25.439Z,42.92
2023-03-20T23:22:51.954Z,36.30
2023-03-20T23:25:31.020Z,38.33
2023-03-20T23:28:04.750Z,37.85
2023-03-20T23:30:43.392Z,49.10
2023-03-20T23:33:11.644Z,38.92
2023-03-20T23:35:38.332Z,45.42
2023-03-20T23:38:04.833Z,42.15
2023-03-20T23:40:31.308Z,43.33
2023-03-20T23:42:57.793Z,43.55
2023-03-20T23:45:24.658Z,37.00
2023-03-20T23:47:51.283Z,41.25
2023-03-20T23:50:28.924Z,42.60
2023-03-20T23:53:09.398Z,38.70
2023-03-20T23:55:41.237Z,42.47
2023-03-20T23:58:08.005Z,38.80
